KICL/ICL METAR and TAF weather

Enter ICAO airport designator
Station Type Date Time Source
KICL METAR 2020/07/08 21:35 UTC NOAA

KICL 082135Z AUTO 20012KT 10SM CLR 33/23 A2985 RMK AO2


Station Type Date Time Source
KICL Decoded METAR 2020/07/08 21:35 UTC NOAA

Clarinda, IA, United States (KICL) 40-43N 095-02W
Jul 08, 2020 - 05:35 PM EDT / 2020.07.08 2135 UTC
Wind: from the SSW (200 degrees) at 14 MPH (12 KT):0
Visibility: 10 mile(s):0
Sky conditions: clear
Temperature: 91 F (33 C)
Heat index: 99.1 F (37.3 C):1
Dew Point: 73 F (23 C)
Relative Humidity: 55%
Pressure (altimeter): 29.85 in. Hg (1010 hPa)
ob: KICL 082135Z AUTO 20012KT 10SM CLR 33/23 A2985 RMK AO2
cycle: 21

Station Type Date Time Source
KICL TAF UTC NOAA

Error!

Example: see airport list